sensor_id;sensor_type;location;lat;lon;timestamp;P1;durP1;ratioP1;P2;durP2;ratioP2
76073;SDS011;64776;42.636;24.358;2023-11-22T00:02:52;49.03;;;21.27;;
76073;SDS011;64776;42.636;24.358;2023-11-22T00:05:54;51.95;;;20.98;;
76073;SDS011;64776;42.636;24.358;2023-11-22T00:08:55;32.05;;;14.27;;
76073;SDS011;64776;42.636;24.358;2023-11-22T00:11:56;28.60;;;12.35;;
76073;SDS011;64776;42.636;24.358;2023-11-22T00:14:57;28.77;;;12.18;;
76073;SDS011;64776;42.636;24.358;2023-11-22T00:17:57;38.70;;;18.42;;
76073;SDS011;64776;42.636;24.358;2023-11-22T00:20:59;42.03;;;20.40;;
76073;SDS011;64776;42.636;24.358;2023-11-22T00:24:00;43.47;;;21.00;;
76073;SDS011;64776;42.636;24.358;2023-11-22T00:27:01;50.60;;;21.85;;
76073;SDS011;64776;42.636;24.358;2023-11-22T00:30:02;54.95;;;25.45;;
76073;SDS011;64776;42.636;24.358;2023-11-22T00:33:03;61.60;;;27.20;;
76073;SDS011;64776;42.636;24.358;2023-11-22T00:36:05;65.85;;;28.23;;
76073;SDS011;64776;42.636;24.358;2023-11-22T00:39:07;68.38;;;33.20;;
76073;SDS011;64776;42.636;24.358;2023-11-22T00:42:07;81.93;;;36.22;;
76073;SDS011;64776;42.636;24.358;2023-11-22T00:45:09;70.97;;;35.10;;
76073;SDS011;64776;42.636;24.358;2023-11-22T00:48:10;92.07;;;43.75;;
76073;SDS011;64776;42.636;24.358;2023-11-22T00:51:12;85.53;;;41.20;;
76073;SDS011;64776;42.636;24.358;2023-11-22T00:54:13;70.28;;;33.13;;
76073;SDS011;64776;42.636;24.358;2023-11-22T00:57:14;55.28;;;27.17;;
76073;SDS011;64776;42.636;24.358;2023-11-22T01:00:15;57.67;;;27.27;;
76073;SDS011;64776;42.636;24.358;2023-11-22T01:03:16;57.67;;;29.30;;
76073;SDS011;64776;42.636;24.358;2023-11-22T01:06:18;62.92;;;29.63;;
76073;SDS011;64776;42.636;24.358;2023-11-22T01:09:19;67.28;;;28.88;;
76073;SDS011;64776;42.636;24.358;2023-11-22T01:12:20;61.70;;;27.98;;
76073;SDS011;64776;42.636;24.358;2023-11-22T01:15:20;54.63;;;24.95;;
76073;SDS011;64776;42.636;24.358;2023-11-22T01:18:21;52.22;;;26.23;;
76073;SDS011;64776;42.636;24.358;2023-11-22T01:21:23;45.67;;;21.40;;
76073;SDS011;64776;42.636;24.358;2023-11-22T01:24:24;64.07;;;29.02;;
76073;SDS011;64776;42.636;24.358;2023-11-22T01:27:25;56.28;;;24.23;;
76073;SDS011;64776;42.636;24.358;2023-11-22T01:30:25;46.83;;;21.48;;
76073;SDS011;64776;42.636;24.358;2023-11-22T01:33:26;40.45;;;17.13;;
76073;SDS011;64776;42.636;24.358;2023-11-22T01:36:29;106.93;;;41.38;;
76073;SDS011;64776;42.636;24.358;2023-11-22T01:39:30;66.18;;;26.92;;
76073;SDS011;64776;42.636;24.358;2023-11-22T01:42:31;83.53;;;35.60;;
76073;SDS011;64776;42.636;24.358;2023-11-22T01:45:32;95.38;;;40.42;;
76073;SDS011;64776;42.636;24.358;2023-11-22T01:48:33;80.63;;;33.45;;
76073;SDS011;64776;42.636;24.358;2023-11-22T01:51:35;43.30;;;20.65;;
76073;SDS011;64776;42.636;24.358;2023-11-22T01:54:37;42.17;;;17.98;;
76073;SDS011;64776;42.636;24.358;2023-11-22T01:57:39;33.50;;;12.93;;
76073;SDS011;64776;42.636;24.358;2023-11-22T02:00:42;24.85;;;8.68;;
76073;SDS011;64776;42.636;24.358;2023-11-22T02:03:45;42.40;;;18.05;;
76073;SDS011;64776;42.636;24.358;2023-11-22T02:06:48;48.20;;;19.52;;
76073;SDS011;64776;42.636;24.358;2023-11-22T02:09:49;53.25;;;25.33;;
76073;SDS011;64776;42.636;24.358;2023-11-22T02:12:49;89.25;;;35.00;;
76073;SDS011;64776;42.636;24.358;2023-11-22T02:15:50;85.72;;;38.00;;
76073;SDS011;64776;42.636;24.358;2023-11-22T02:18:51;86.90;;;36.88;;
76073;SDS011;64776;42.636;24.358;2023-11-22T02:21:53;58.25;;;24.00;;
76073;SDS011;64776;42.636;24.358;2023-11-22T02:24:55;51.53;;;21.35;;
76073;SDS011;64776;42.636;24.358;2023-11-22T02:27:56;53.08;;;24.95;;
76073;SDS011;64776;42.636;24.358;2023-11-22T02:30:56;64.35;;;24.42;;
76073;SDS011;64776;42.636;24.358;2023-11-22T02:33:57;57.05;;;23.48;;
76073;SDS011;64776;42.636;24.358;2023-11-22T02:36:58;53.92;;;24.13;;
76073;SDS011;64776;42.636;24.358;2023-11-22T02:40:02;52.75;;;22.08;;
76073;SDS011;64776;42.636;24.358;2023-11-22T02:43:06;43.97;;;19.27;;
76073;SDS011;64776;42.636;24.358;2023-11-22T02:46:08;35.05;;;15.77;;
76073;SDS011;64776;42.636;24.358;2023-11-22T02:49:08;36.17;;;16.20;;
76073;SDS011;64776;42.636;24.358;2023-11-22T02:52:09;38.80;;;19.20;;
76073;SDS011;64776;42.636;24.358;2023-11-22T02:55:11;37.47;;;18.13;;
76073;SDS011;64776;42.636;24.358;2023-11-22T02:58:12;45.20;;;20.63;;
76073;SDS011;64776;42.636;24.358;2023-11-22T03:01:13;55.65;;;23.70;;
76073;SDS011;64776;42.636;24.358;2023-11-22T03:04:14;60.60;;;25.33;;
76073;SDS011;64776;42.636;24.358;2023-11-22T03:07:15;63.13;;;26.35;;
76073;SDS011;64776;42.636;24.358;2023-11-22T03:10:17;71.22;;;29.95;;
76073;SDS011;64776;42.636;24.358;2023-11-22T03:13:18;81.00;;;34.03;;
76073;SDS011;64776;42.636;24.358;2023-11-22T03:16:19;64.25;;;28.85;;
76073;SDS011;64776;42.636;24.358;2023-11-22T03:19:19;56.45;;;23.25;;
76073;SDS011;64776;42.636;24.358;2023-11-22T03:22:20;48.67;;;19.83;;
76073;SDS011;64776;42.636;24.358;2023-11-22T03:25:22;47.83;;;20.08;;
76073;SDS011;64776;42.636;24.358;2023-11-22T03:28:23;48.85;;;20.92;;
76073;SDS011;64776;42.636;24.358;2023-11-22T03:31:24;48.30;;;21.15;;
76073;SDS011;64776;42.636;24.358;2023-11-22T03:34:25;41.90;;;21.83;;
76073;SDS011;64776;42.636;24.358;2023-11-22T03:37:25;37.22;;;16.85;;
76073;SDS011;64776;42.636;24.358;2023-11-22T03:40:27;57.80;;;20.92;;
76073;SDS011;64776;42.636;24.358;2023-11-22T03:43:28;34.88;;;12.73;;
76073;SDS011;64776;42.636;24.358;2023-11-22T03:46:29;22.52;;;10.32;;
76073;SDS011;64776;42.636;24.358;2023-11-22T03:49:30;35.08;;;14.63;;
76073;SDS011;64776;42.636;24.358;2023-11-22T03:52:30;28.77;;;12.02;;
76073;SDS011;64776;42.636;24.358;2023-11-22T03:55:32;27.55;;;13.65;;
76073;SDS011;64776;42.636;24.358;2023-11-22T03:58:33;27.00;;;12.15;;
76073;SDS011;64776;42.636;24.358;2023-11-22T04:01:34;34.58;;;16.35;;
76073;SDS011;64776;42.636;24.358;2023-11-22T04:04:35;30.30;;;15.27;;
76073;SDS011;64776;42.636;24.358;2023-11-22T04:07:36;28.80;;;14.38;;
76073;SDS011;64776;42.636;24.358;2023-11-22T04:10:38;31.40;;;15.88;;
76073;SDS011;64776;42.636;24.358;2023-11-22T04:13:39;41.40;;;18.80;;
76073;SDS011;64776;42.636;24.358;2023-11-22T04:16:40;43.95;;;19.80;;
76073;SDS011;64776;42.636;24.358;2023-11-22T04:19:41;44.78;;;21.80;;
76073;SDS011;64776;42.636;24.358;2023-11-22T04:22:42;42.67;;;20.27;;
76073;SDS011;64776;42.636;24.358;2023-11-22T04:25:45;84.97;;;38.75;;
76073;SDS011;64776;42.636;24.358;2023-11-22T04:28:46;65.13;;;33.00;;
76073;SDS011;64776;42.636;24.358;2023-11-22T04:31:47;27.00;;;15.20;;
76073;SDS011;64776;42.636;24.358;2023-11-22T04:34:47;48.80;;;23.48;;
76073;SDS011;64776;42.636;24.358;2023-11-22T04:37:49;43.13;;;16.42;;
76073;SDS011;64776;42.636;24.358;2023-11-22T04:40:52;46.88;;;20.38;;
76073;SDS011;64776;42.636;24.358;2023-11-22T04:43:52;36.47;;;17.15;;
76073;SDS011;64776;42.636;24.358;2023-11-22T04:46:53;36.33;;;17.25;;
76073;SDS011;64776;42.636;24.358;2023-11-22T04:49:54;64.07;;;27.95;;
76073;SDS011;64776;42.636;24.358;2023-11-22T04:52:54;52.35;;;22.83;;
76073;SDS011;64776;42.636;24.358;2023-11-22T04:55:57;46.45;;;21.70;;
76073;SDS011;64776;42.636;24.358;2023-11-22T04:58:57;51.67;;;24.10;;
76073;SDS011;64776;42.636;24.358;2023-11-22T05:01:58;52.50;;;22.08;;
76073;SDS011;64776;42.636;24.358;2023-11-22T05:04:59;49.45;;;23.23;;
76073;SDS011;64776;42.636;24.358;2023-11-22T05:08:00;61.72;;;27.63;;
76073;SDS011;64776;42.636;24.358;2023-11-22T05:11:02;64.45;;;30.73;;
76073;SDS011;64776;42.636;24.358;2023-11-22T05:14:03;53.20;;;24.85;;
76073;SDS011;64776;42.636;24.358;2023-11-22T05:17:04;54.47;;;26.33;;
76073;SDS011;64776;42.636;24.358;2023-11-22T05:20:05;49.88;;;24.90;;
76073;SDS011;64776;42.636;24.358;2023-11-22T05:23:07;107.10;;;48.13;;
76073;SDS011;64776;42.636;24.358;2023-11-22T05:26:09;133.32;;;57.80;;
76073;SDS011;64776;42.636;24.358;2023-11-22T05:29:10;106.10;;;46.65;;
76073;SDS011;64776;42.636;24.358;2023-11-22T05:32:11;105.57;;;50.40;;
76073;SDS011;64776;42.636;24.358;2023-11-22T05:35:11;105.57;;;49.38;;
76073;SDS011;64776;42.636;24.358;2023-11-22T05:38:12;93.78;;;44.83;;
76073;SDS011;64776;42.636;24.358;2023-11-22T05:41:14;91.15;;;41.40;;
76073;SDS011;64776;42.636;24.358;2023-11-22T05:44:15;76.30;;;39.85;;
76073;SDS011;64776;42.636;24.358;2023-11-22T05:47:16;65.82;;;34.85;;
76073;SDS011;64776;42.636;24.358;2023-11-22T05:50:16;78.70;;;38.53;;
76073;SDS011;64776;42.636;24.358;2023-11-22T05:53:17;77.22;;;36.92;;
76073;SDS011;64776;42.636;24.358;2023-11-22T05:56:19;89.20;;;42.90;;
76073;SDS011;64776;42.636;24.358;2023-11-22T05:59:20;77.65;;;39.20;;
76073;SDS011;64776;42.636;24.358;2023-11-22T06:02:21;76.30;;;39.38;;
76073;SDS011;64776;42.636;24.358;2023-11-22T06:05:21;73.85;;;40.05;;
76073;SDS011;64776;42.636;24.358;2023-11-22T06:08:22;99.32;;;45.95;;
76073;SDS011;64776;42.636;24.358;2023-11-22T06:11:24;106.60;;;48.83;;
76073;SDS011;64776;42.636;24.358;2023-11-22T06:14:25;149.35;;;75.45;;
76073;SDS011;64776;42.636;24.358;2023-11-22T06:17:26;140.70;;;69.13;;
76073;SDS011;64776;42.636;24.358;2023-11-22T06:20:27;125.10;;;60.20;;
76073;SDS011;64776;42.636;24.358;2023-11-22T06:23:27;138.48;;;68.82;;
76073;SDS011;64776;42.636;24.358;2023-11-22T06:26:30;116.43;;;56.22;;
76073;SDS011;64776;42.636;24.358;2023-11-22T06:29:30;68.70;;;34.20;;
76073;SDS011;64776;42.636;24.358;2023-11-22T06:32:31;50.15;;;25.48;;
76073;SDS011;64776;42.636;24.358;2023-11-22T06:35:32;91.47;;;45.78;;
76073;SDS011;64776;42.636;24.358;2023-11-22T06:38:33;203.23;;;104.22;;
76073;SDS011;64776;42.636;24.358;2023-11-22T06:41:35;152.60;;;78.05;;
76073;SDS011;64776;42.636;24.358;2023-11-22T06:44:35;211.98;;;102.90;;
76073;SDS011;64776;42.636;24.358;2023-11-22T06:47:36;221.85;;;112.20;;
76073;SDS011;64776;42.636;24.358;2023-11-22T06:50:37;226.27;;;114.25;;
76073;SDS011;64776;42.636;24.358;2023-11-22T06:53:38;253.68;;;130.07;;
76073;SDS011;64776;42.636;24.358;2023-11-22T06:56:40;230.52;;;117.18;;
76073;SDS011;64776;42.636;24.358;2023-11-22T06:59:41;221.80;;;112.97;;
76073;SDS011;64776;42.636;24.358;2023-11-22T07:02:41;206.57;;;111.55;;
76073;SDS011;64776;42.636;24.358;2023-11-22T07:05:42;200.68;;;108.05;;
76073;SDS011;64776;42.636;24.358;2023-11-22T07:08:43;189.95;;;98.07;;
76073;SDS011;64776;42.636;24.358;2023-11-22T07:11:46;194.52;;;99.15;;
76073;SDS011;64776;42.636;24.358;2023-11-22T07:14:46;244.82;;;139.50;;
76073;SDS011;64776;42.636;24.358;2023-11-22T07:17:47;276.25;;;153.07;;
76073;SDS011;64776;42.636;24.358;2023-11-22T07:20:48;235.95;;;132.27;;
76073;SDS011;64776;42.636;24.358;2023-11-22T07:23:49;194.45;;;104.32;;
76073;SDS011;64776;42.636;24.358;2023-11-22T07:26:51;187.07;;;104.75;;
76073;SDS011;64776;42.636;24.358;2023-11-22T07:29:52;171.15;;;87.15;;
76073;SDS011;64776;42.636;24.358;2023-11-22T07:32:52;124.75;;;68.75;;
76073;SDS011;64776;42.636;24.358;2023-11-22T07:35:53;176.10;;;97.85;;
76073;SDS011;64776;42.636;24.358;2023-11-22T07:38:54;185.68;;;103.28;;
76073;SDS011;64776;42.636;24.358;2023-11-22T07:41:56;225.07;;;121.63;;
76073;SDS011;64776;42.636;24.358;2023-11-22T07:44:57;223.70;;;124.68;;
76073;SDS011;64776;42.636;24.358;2023-11-22T07:47:57;212.50;;;117.45;;
76073;SDS011;64776;42.636;24.358;2023-11-22T07:50:58;205.93;;;115.65;;
76073;SDS011;64776;42.636;24.358;2023-11-22T07:53:59;212.02;;;119.03;;
76073;SDS011;64776;42.636;24.358;2023-11-22T07:57:01;235.57;;;136.73;;
76073;SDS011;64776;42.636;24.358;2023-11-22T08:00:02;213.20;;;120.65;;
76073;SDS011;64776;42.636;24.358;2023-11-22T08:03:03;237.98;;;126.40;;
76073;SDS011;64776;42.636;24.358;2023-11-22T08:06:04;226.18;;;133.25;;
76073;SDS011;64776;42.636;24.358;2023-11-22T08:09:06;223.38;;;131.48;;
76073;SDS011;64776;42.636;24.358;2023-11-22T08:12:08;213.30;;;128.00;;
76073;SDS011;64776;42.636;24.358;2023-11-22T08:15:09;207.88;;;123.22;;
76073;SDS011;64776;42.636;24.358;2023-11-22T08:18:09;210.75;;;122.05;;
76073;SDS011;64776;42.636;24.358;2023-11-22T08:21:10;216.88;;;129.80;;
76073;SDS011;64776;42.636;24.358;2023-11-22T08:24:11;252.63;;;142.77;;
76073;SDS011;64776;42.636;24.358;2023-11-22T08:27:13;231.88;;;130.00;;
76073;SDS011;64776;42.636;24.358;2023-11-22T08:30:14;193.77;;;103.20;;
76073;SDS011;64776;42.636;24.358;2023-11-22T08:33:15;193.95;;;107.80;;
76073;SDS011;64776;42.636;24.358;2023-11-22T08:36:16;178.20;;;102.20;;
76073;SDS011;64776;42.636;24.358;2023-11-22T08:39:16;169.98;;;100.82;;
76073;SDS011;64776;42.636;24.358;2023-11-22T08:42:18;237.77;;;132.77;;
76073;SDS011;64776;42.636;24.358;2023-11-22T08:45:19;416.30;;;220.52;;
76073;SDS011;64776;42.636;24.358;2023-11-22T08:48:20;241.20;;;129.98;;
76073;SDS011;64776;42.636;24.358;2023-11-22T08:51:21;137.40;;;79.43;;
76073;SDS011;64776;42.636;24.358;2023-11-22T08:54:22;133.30;;;77.13;;
76073;SDS011;64776;42.636;24.358;2023-11-22T08:57:24;114.03;;;69.68;;
76073;SDS011;64776;42.636;24.358;2023-11-22T09:00:25;111.00;;;63.78;;
76073;SDS011;64776;42.636;24.358;2023-11-22T09:03:25;112.13;;;62.28;;
76073;SDS011;64776;42.636;24.358;2023-11-22T09:06:26;105.80;;;60.15;;
76073;SDS011;64776;42.636;24.358;2023-11-22T09:09:27;85.35;;;50.75;;
76073;SDS011;64776;42.636;24.358;2023-11-22T09:12:29;80.03;;;47.72;;
76073;SDS011;64776;42.636;24.358;2023-11-22T09:15:30;79.82;;;47.60;;
76073;SDS011;64776;42.636;24.358;2023-11-22T09:18:31;85.63;;;49.80;;
76073;SDS011;64776;42.636;24.358;2023-11-22T09:21:31;95.03;;;54.17;;
76073;SDS011;64776;42.636;24.358;2023-11-22T09:24:32;114.80;;;61.10;;
76073;SDS011;64776;42.636;24.358;2023-11-22T09:27:35;111.00;;;60.33;;
76073;SDS011;64776;42.636;24.358;2023-11-22T09:30:35;113.30;;;61.00;;
76073;SDS011;64776;42.636;24.358;2023-11-22T09:33:36;186.73;;;89.25;;
76073;SDS011;64776;42.636;24.358;2023-11-22T09:36:37;224.90;;;106.63;;
76073;SDS011;64776;42.636;24.358;2023-11-22T09:39:37;83.20;;;45.55;;
76073;SDS011;64776;42.636;24.358;2023-11-22T09:42:40;88.63;;;47.40;;
76073;SDS011;64776;42.636;24.358;2023-11-22T09:45:40;92.10;;;49.08;;
76073;SDS011;64776;42.636;24.358;2023-11-22T09:48:41;88.22;;;47.55;;
76073;SDS011;64776;42.636;24.358;2023-11-22T09:51:43;89.43;;;44.25;;
76073;SDS011;64776;42.636;24.358;2023-11-22T09:54:44;49.00;;;26.88;;
76073;SDS011;64776;42.636;24.358;2023-11-22T09:57:46;38.70;;;21.25;;
76073;SDS011;64776;42.636;24.358;2023-11-22T10:00:48;36.92;;;20.95;;
76073;SDS011;64776;42.636;24.358;2023-11-22T10:03:50;35.67;;;19.95;;
76073;SDS011;64776;42.636;24.358;2023-11-22T10:06:51;46.75;;;29.55;;
76073;SDS011;64776;42.636;24.358;2023-11-22T10:09:52;41.88;;;24.67;;
76073;SDS011;64776;42.636;24.358;2023-11-22T10:12:54;45.90;;;25.90;;
76073;SDS011;64776;42.636;24.358;2023-11-22T10:15:55;47.45;;;28.23;;
76073;SDS011;64776;42.636;24.358;2023-11-22T10:18:56;46.50;;;26.15;;
76073;SDS011;64776;42.636;24.358;2023-11-22T10:22:05;51.25;;;26.25;;
76073;SDS011;64776;42.636;24.358;2023-11-22T10:25:07;29.70;;;15.50;;
76073;SDS011;64776;42.636;24.358;2023-11-22T10:28:11;27.55;;;16.73;;
76073;SDS011;64776;42.636;24.358;2023-11-22T10:31:12;20.08;;;12.57;;
76073;SDS011;64776;42.636;24.358;2023-11-22T10:34:13;17.65;;;9.40;;
76073;SDS011;64776;42.636;24.358;2023-11-22T10:37:15;20.27;;;11.38;;
76073;SDS011;64776;42.636;24.358;2023-11-22T10:40:16;25.08;;;11.35;;
76073;SDS011;64776;42.636;24.358;2023-11-22T10:43:18;36.47;;;17.52;;
76073;SDS011;64776;42.636;24.358;2023-11-22T10:46:21;40.25;;;21.38;;
76073;SDS011;64776;42.636;24.358;2023-11-22T10:49:27;11.18;;;5.07;;
76073;SDS011;64776;42.636;24.358;2023-11-22T10:52:28;11.90;;;4.50;;
76073;SDS011;64776;42.636;24.358;2023-11-22T10:55:31;28.65;;;10.20;;
76073;SDS011;64776;42.636;24.358;2023-11-22T10:58:34;10.15;;;4.32;;
76073;SDS011;64776;42.636;24.358;2023-11-22T11:01:36;20.23;;;8.18;;
76073;SDS011;64776;42.636;24.358;2023-11-22T11:04:39;34.42;;;14.52;;
76073;SDS011;64776;42.636;24.358;2023-11-22T11:07:45;13.98;;;6.57;;
76073;SDS011;64776;42.636;24.358;2023-11-22T11:10:49;17.00;;;9.98;;
76073;SDS011;64776;42.636;24.358;2023-11-22T11:13:58;22.46;;;9.27;;
76073;SDS011;64776;42.636;24.358;2023-11-22T11:16:59;24.40;;;11.23;;
76073;SDS011;64776;42.636;24.358;2023-11-22T11:20:02;14.40;;;6.40;;
76073;SDS011;64776;42.636;24.358;2023-11-22T11:23:04;18.08;;;7.57;;
76073;SDS011;64776;42.636;24.358;2023-11-22T11:26:08;585.40;;;245.50;;
76073;SDS011;64776;42.636;24.358;2023-11-22T11:32:42;36.90;;;17.73;;
76073;SDS011;64776;42.636;24.358;2023-11-22T11:35:46;22.00;;;10.63;;
76073;SDS011;64776;42.636;24.358;2023-11-22T11:38:48;9.85;;;3.85;;
76073;SDS011;64776;42.636;24.358;2023-11-22T11:41:48;29.88;;;13.60;;
76073;SDS011;64776;42.636;24.358;2023-11-22T11:45:02;12.05;;;5.30;;
76073;SDS011;64776;42.636;24.358;2023-11-22T11:48:06;13.15;;;6.13;;
76073;SDS011;64776;42.636;24.358;2023-11-22T11:51:07;6.55;;;2.92;;
76073;SDS011;64776;42.636;24.358;2023-11-22T11:54:07;7.78;;;3.47;;
76073;SDS011;64776;42.636;24.358;2023-11-22T11:57:08;23.10;;;10.85;;
76073;SDS011;64776;42.636;24.358;2023-11-22T12:00:09;18.63;;;9.10;;
76073;SDS011;64776;42.636;24.358;2023-11-22T12:03:14;24.30;;;10.43;;
76073;SDS011;64776;42.636;24.358;2023-11-22T12:06:15;21.35;;;10.88;;
76073;SDS011;64776;42.636;24.358;2023-11-22T12:09:21;24.52;;;11.10;;
76073;SDS011;64776;42.636;24.358;2023-11-22T12:12:22;32.33;;;14.10;;
76073;SDS011;64776;42.636;24.358;2023-11-22T12:15:23;6.88;;;3.60;;
76073;SDS011;64776;42.636;24.358;2023-11-22T12:18:26;17.50;;;7.88;;
76073;SDS011;64776;42.636;24.358;2023-11-22T12:21:27;9.25;;;3.95;;
76073;SDS011;64776;42.636;24.358;2023-11-22T12:24:30;17.67;;;7.45;;
76073;SDS011;64776;42.636;24.358;2023-11-22T12:27:31;14.98;;;8.10;;
76073;SDS011;64776;42.636;24.358;2023-11-22T12:30:32;14.45;;;8.32;;
76073;SDS011;64776;42.636;24.358;2023-11-22T12:33:35;19.05;;;9.65;;
76073;SDS011;64776;42.636;24.358;2023-11-22T12:36:37;15.05;;;6.93;;
76073;SDS011;64776;42.636;24.358;2023-11-22T12:39:38;18.92;;;7.60;;
76073;SDS011;64776;42.636;24.358;2023-11-22T12:42:49;15.63;;;7.57;;
76073;SDS011;64776;42.636;24.358;2023-11-22T12:45:57;14.27;;;7.68;;
76073;SDS011;64776;42.636;24.358;2023-11-22T12:49:06;21.45;;;9.93;;
76073;SDS011;64776;42.636;24.358;2023-11-22T12:52:06;12.65;;;5.78;;
76073;SDS011;64776;42.636;24.358;2023-11-22T12:55:07;29.00;;;15.40;;
76073;SDS011;64776;42.636;24.358;2023-11-22T12:58:08;17.33;;;7.90;;
76073;SDS011;64776;42.636;24.358;2023-11-22T13:01:09;15.30;;;7.57;;
76073;SDS011;64776;42.636;24.358;2023-11-22T13:04:11;23.20;;;11.15;;
76073;SDS011;64776;42.636;24.358;2023-11-22T13:07:12;18.40;;;7.90;;
76073;SDS011;64776;42.636;24.358;2023-11-22T13:10:12;14.20;;;6.22;;
76073;SDS011;64776;42.636;24.358;2023-11-22T13:13:13;12.98;;;6.18;;
76073;SDS011;64776;42.636;24.358;2023-11-22T13:16:14;16.88;;;9.15;;
76073;SDS011;64776;42.636;24.358;2023-11-22T13:19:16;8.82;;;3.75;;
76073;SDS011;64776;42.636;24.358;2023-11-22T13:22:17;8.68;;;4.63;;
76073;SDS011;64776;42.636;24.358;2023-11-22T13:25:18;8.85;;;2.80;;
76073;SDS011;64776;42.636;24.358;2023-11-22T13:28:18;24.85;;;11.07;;
76073;SDS011;64776;42.636;24.358;2023-11-22T13:31:19;15.02;;;8.10;;
76073;SDS011;64776;42.636;24.358;2023-11-22T13:34:22;17.35;;;9.55;;
76073;SDS011;64776;42.636;24.358;2023-11-22T13:37:22;27.05;;;14.65;;
76073;SDS011;64776;42.636;24.358;2023-11-22T13:40:23;68.65;;;31.92;;
76073;SDS011;64776;42.636;24.358;2023-11-22T13:43:24;74.25;;;34.40;;
76073;SDS011;64776;42.636;24.358;2023-11-22T13:46:25;35.00;;;19.83;;
76073;SDS011;64776;42.636;24.358;2023-11-22T13:49:29;30.65;;;17.65;;
76073;SDS011;64776;42.636;24.358;2023-11-22T13:52:30;30.58;;;18.00;;
76073;SDS011;64776;42.636;24.358;2023-11-22T13:55:31;17.60;;;10.40;;
76073;SDS011;64776;42.636;24.358;2023-11-22T13:58:35;19.88;;;11.20;;
76073;SDS011;64776;42.636;24.358;2023-11-22T14:01:35;23.65;;;11.80;;
76073;SDS011;64776;42.636;24.358;2023-11-22T14:04:38;29.35;;;13.70;;
76073;SDS011;64776;42.636;24.358;2023-11-22T14:07:39;27.35;;;14.55;;
76073;SDS011;64776;42.636;24.358;2023-11-22T14:10:39;31.02;;;15.00;;
76073;SDS011;64776;42.636;24.358;2023-11-22T14:13:40;21.17;;;11.32;;
76073;SDS011;64776;42.636;24.358;2023-11-22T14:16:41;23.02;;;10.65;;
76073;SDS011;64776;42.636;24.358;2023-11-22T14:19:43;38.92;;;18.45;;
76073;SDS011;64776;42.636;24.358;2023-11-22T14:22:44;61.53;;;32.83;;
76073;SDS011;64776;42.636;24.358;2023-11-22T14:25:45;62.53;;;34.30;;
76073;SDS011;64776;42.636;24.358;2023-11-22T14:28:45;61.30;;;32.33;;
76073;SDS011;64776;42.636;24.358;2023-11-22T14:31:46;41.55;;;25.27;;
76073;SDS011;64776;42.636;24.358;2023-11-22T14:34:48;56.90;;;29.60;;
76073;SDS011;64776;42.636;24.358;2023-11-22T14:37:49;78.88;;;42.85;;
76073;SDS011;64776;42.636;24.358;2023-11-22T14:40:50;65.95;;;37.83;;
76073;SDS011;64776;42.636;24.358;2023-11-22T14:43:50;114.35;;;57.72;;
76073;SDS011;64776;42.636;24.358;2023-11-22T14:46:51;75.88;;;41.88;;
76073;SDS011;64776;42.636;24.358;2023-11-22T14:49:53;66.07;;;36.35;;
76073;SDS011;64776;42.636;24.358;2023-11-22T14:52:54;65.05;;;36.33;;
76073;SDS011;64776;42.636;24.358;2023-11-22T14:55:55;105.20;;;53.15;;
76073;SDS011;64776;42.636;24.358;2023-11-22T14:58:56;120.57;;;57.80;;
76073;SDS011;64776;42.636;24.358;2023-11-22T15:01:56;120.93;;;58.92;;
76073;SDS011;64776;42.636;24.358;2023-11-22T15:04:59;163.68;;;76.60;;
76073;SDS011;64776;42.636;24.358;2023-11-22T15:07:59;120.95;;;64.68;;
76073;SDS011;64776;42.636;24.358;2023-11-22T15:11:00;139.20;;;71.80;;
76073;SDS011;64776;42.636;24.358;2023-11-22T15:14:01;125.57;;;62.15;;
76073;SDS011;64776;42.636;24.358;2023-11-22T15:17:02;97.40;;;51.92;;
76073;SDS011;64776;42.636;24.358;2023-11-22T15:20:04;73.38;;;41.20;;
76073;SDS011;64776;42.636;24.358;2023-11-22T15:23:06;61.55;;;32.38;;
76073;SDS011;64776;42.636;24.358;2023-11-22T15:26:06;59.63;;;32.03;;
76073;SDS011;64776;42.636;24.358;2023-11-22T15:29:07;135.30;;;65.55;;
76073;SDS011;64776;42.636;24.358;2023-11-22T15:32:08;89.70;;;51.85;;
76073;SDS011;64776;42.636;24.358;2023-11-22T15:35:10;60.20;;;32.15;;
76073;SDS011;64776;42.636;24.358;2023-11-22T15:38:11;56.95;;;33.80;;
76073;SDS011;64776;42.636;24.358;2023-11-22T15:41:11;62.30;;;38.25;;
76073;SDS011;64776;42.636;24.358;2023-11-22T15:44:12;103.70;;;55.30;;
76073;SDS011;64776;42.636;24.358;2023-11-22T15:47:13;133.13;;;68.32;;
76073;SDS011;64776;42.636;24.358;2023-11-22T15:50:15;239.38;;;112.10;;
76073;SDS011;64776;42.636;24.358;2023-11-22T15:53:16;112.05;;;57.88;;
76073;SDS011;64776;42.636;24.358;2023-11-22T15:56:16;183.45;;;88.72;;
76073;SDS011;64776;42.636;24.358;2023-11-22T15:59:17;135.18;;;67.10;;
76073;SDS011;64776;42.636;24.358;2023-11-22T16:02:18;153.20;;;74.57;;
76073;SDS011;64776;42.636;24.358;2023-11-22T16:05:20;179.27;;;87.93;;
76073;SDS011;64776;42.636;24.358;2023-11-22T16:08:21;130.48;;;72.72;;
76073;SDS011;64776;42.636;24.358;2023-11-22T16:11:22;96.45;;;52.60;;
76073;SDS011;64776;42.636;24.358;2023-11-22T16:14:22;82.28;;;44.63;;
76073;SDS011;64776;42.636;24.358;2023-11-22T16:17:23;87.75;;;48.00;;
76073;SDS011;64776;42.636;24.358;2023-11-22T16:20:25;114.03;;;62.03;;
76073;SDS011;64776;42.636;24.358;2023-11-22T16:23:26;130.68;;;67.10;;
76073;SDS011;64776;42.636;24.358;2023-11-22T16:26:27;113.60;;;59.40;;
76073;SDS011;64776;42.636;24.358;2023-11-22T16:29:27;102.82;;;51.90;;
76073;SDS011;64776;42.636;24.358;2023-11-22T16:32:28;99.63;;;48.85;;
76073;SDS011;64776;42.636;24.358;2023-11-22T16:35:31;107.55;;;52.47;;
76073;SDS011;64776;42.636;24.358;2023-11-22T16:38:33;95.45;;;46.10;;
76073;SDS011;64776;42.636;24.358;2023-11-22T16:41:34;32.30;;;17.30;;
76073;SDS011;64776;42.636;24.358;2023-11-22T16:44:35;34.33;;;18.05;;
76073;SDS011;64776;42.636;24.358;2023-11-22T16:47:35;41.00;;;18.70;;
76073;SDS011;64776;42.636;24.358;2023-11-22T16:50:38;51.25;;;19.13;;
76073;SDS011;64776;42.636;24.358;2023-11-22T16:53:38;120.40;;;49.67;;
76073;SDS011;64776;42.636;24.358;2023-11-22T16:56:40;134.73;;;61.45;;
76073;SDS011;64776;42.636;24.358;2023-11-22T16:59:41;78.53;;;31.65;;
76073;SDS011;64776;42.636;24.358;2023-11-22T17:02:41;45.50;;;18.92;;
76073;SDS011;64776;42.636;24.358;2023-11-22T17:05:44;61.95;;;22.40;;
76073;SDS011;64776;42.636;24.358;2023-11-22T17:08:46;69.78;;;27.00;;
76073;SDS011;64776;42.636;24.358;2023-11-22T17:11:47;93.30;;;41.60;;
76073;SDS011;64776;42.636;24.358;2023-11-22T17:14:48;83.40;;;28.15;;
76073;SDS011;64776;42.636;24.358;2023-11-22T17:17:48;124.15;;;50.05;;
76073;SDS011;64776;42.636;24.358;2023-11-22T17:20:51;129.55;;;56.25;;
76073;SDS011;64776;42.636;24.358;2023-11-22T17:23:51;112.15;;;39.92;;
76073;SDS011;64776;42.636;24.358;2023-11-22T17:26:52;84.93;;;28.05;;